Time;durP1;ratioP1;P1;durP2;ratioP2;P2;SDS_P1;SDS_P2;PMS_P1;PMS_P2;Temp;Humidity;BMP_temperature;BMP_pressure;BME280_temperature;BME280_humidity;BME280_pressure;Samples;Min_cycle;Max_cycle;Signal;HPM_P1;HPM_P2
2022/12/16 00:01:35;;;;;;;41.92;27.48;;;0.90;99.90;;;;;;5071740;28;20123;-72
2022/12/16 00:04:01;;;;;;;41.90;26.85;;;0.90;99.90;;;;;;5069978;28;20119;-72
2022/12/16 00:06:30;;;;;;;39.08;26.10;;;1.10;99.90;;;;;;5070346;28;20052;-72
2022/12/16 00:08:56;;;;;;;40.65;27.42;;;1.10;99.90;;;;;;5071488;28;20047;-72
2022/12/16 00:11:21;;;;;;;39.30;25.45;;;1.20;99.90;;;;;;5071367;28;20040;-72
2022/12/16 00:13:47;;;;;;;36.45;26.05;;;1.10;99.90;;;;;;5070408;28;20643;-72
2022/12/16 00:16:15;;;;;;;40.33;26.00;;;0.80;99.90;;;;;;5071088;28;20040;-72
2022/12/16 00:18:41;;;;;;;32.15;22.92;;;0.80;99.90;;;;;;5071389;28;20072;-72
2022/12/16 00:21:08;;;;;;;39.83;26.27;;;0.80;99.90;;;;;;5071408;28;20079;-72
2022/12/16 00:23:34;;;;;;;40.63;26.42;;;0.90;99.90;;;;;;5070935;28;20037;-72
2022/12/16 00:26:01;;;;;;;39.90;27.05;;;0.80;99.90;;;;;;5069971;28;20474;-72
2022/12/16 00:28:27;;;;;;;38.33;25.27;;;0.70;99.90;;;;;;5071261;28;20406;-72
2022/12/16 00:30:54;;;;;;;40.40;25.17;;;1.00;99.90;;;;;;5070940;28;20490;-72
2022/12/16 00:33:21;;;;;;;38.13;24.60;;;0.70;99.90;;;;;;5070986;28;20155;-72
2022/12/16 00:35:47;;;;;;;39.33;25.88;;;0.90;99.90;;;;;;5072317;28;20546;-72
2022/12/16 00:38:13;;;;;;;50.55;27.35;;;0.70;99.90;;;;;;5075357;28;20128;-72
2022/12/16 00:40:39;;;;;;;37.85;26.02;;;0.60;99.90;;;;;;5075367;28;20040;-72
2022/12/16 00:43:04;;;;;;;41.20;27.13;;;0.90;99.90;;;;;;5075153;28;20043;-72
2022/12/16 00:45:30;;;;;;;37.97;26.23;;;0.60;99.90;;;;;;5075469;28;20036;-72
2022/12/16 00:47:56;;;;;;;40.20;26.70;;;0.70;99.90;;;;;;5074015;28;20717;-72
2022/12/16 00:50:22;;;;;;;37.15;24.48;;;1.00;99.90;;;;;;5075290;28;20120;-72
2022/12/16 00:52:48;;;;;;;39.67;24.63;;;0.80;99.90;;;;;;5074644;28;20501;-72
2022/12/16 00:55:15;;;;;;;38.42;26.40;;;0.70;99.90;;;;;;5075337;28;20044;-72
2022/12/16 00:57:40;;;;;;;39.85;25.73;;;0.90;99.90;;;;;;5073621;28;20514;-72
2022/12/16 01:00:11;;;;;;;43.38;27.38;;;1.00;99.90;;;;;;5075054;28;20097;-72
2022/12/16 01:02:41;;;;;;;38.72;26.35;;;0.70;99.90;;;;;;5074781;28;20112;-72
2022/12/16 01:05:07;;;;;;;39.88;25.50;;;1.10;99.90;;;;;;5074932;28;20040;-72
2022/12/16 01:07:33;;;;;;;37.92;24.92;;;0.70;99.90;;;;;;5075132;28;20044;-72
2022/12/16 01:09:59;;;;;;;35.03;24.58;;;0.90;99.90;;;;;;5074818;28;20029;-72
2022/12/16 01:12:24;;;;;;;38.22;25.23;;;1.10;99.90;;;;;;5074376;28;20044;-72
2022/12/16 01:14:50;;;;;;;38.72;24.05;;;0.80;99.90;;;;;;5074901;28;20054;-72
2022/12/16 01:17:15;;;;;;;40.38;24.15;;;0.90;99.90;;;;;;5073336;28;20080;-72
2022/12/16 01:19:41;;;;;;;35.13;22.92;;;0.90;99.90;;;;;;5074407;28;20469;-72
2022/12/16 01:22:07;;;;;;;43.25;24.50;;;1.20;99.90;;;;;;5073408;28;20036;-72
2022/12/16 01:24:32;;;;;;;32.88;22.52;;;1.20;99.90;;;;;;5074431;28;20128;-72
2022/12/16 01:26:58;;;;;;;31.75;22.17;;;1.30;99.90;;;;;;5073105;28;20040;-72
2022/12/16 01:29:24;;;;;;;36.55;22.58;;;1.10;99.90;;;;;;5073385;28;20097;-72
2022/12/16 01:31:50;;;;;;;34.05;22.10;;;1.30;99.90;;;;;;5072994;28;20044;-72
2022/12/16 01:34:16;;;;;;;34.47;21.55;;;1.40;99.90;;;;;;5073895;28;20040;-72
2022/12/16 01:36:41;;;;;;;34.97;22.58;;;1.30;99.90;;;;;;5072978;28;20040;-72
2022/12/16 01:39:09;;;;;;;32.25;19.83;;;1.40;99.90;;;;;;5074360;28;20046;-72
2022/12/16 01:41:35;;;;;;;29.88;20.10;;;1.40;99.90;;;;;;5073889;28;20110;-72
2022/12/16 01:44:15;;;;;;;27.17;19.25;;;1.20;99.90;;;;;;5072367;28;20482;-73
2022/12/16 01:46:44;;;;;;;30.70;19.58;;;1.30;99.90;;;;;;5072680;28;20063;-72
2022/12/16 01:49:27;;;;;;;28.35;19.35;;;1.40;99.90;;;;;;5072752;28;20040;-72
2022/12/16 01:51:57;;;;;;;33.42;19.88;;;1.40;99.90;;;;;;5073805;28;20040;-72
2022/12/16 01:54:28;;;;;;;29.10;17.50;;;1.40;99.90;;;;;;5072296;28;20055;-72
2022/12/16 01:56:58;;;;;;;26.77;16.38;;;1.30;99.90;;;;;;5072778;28;20494;-72
2022/12/16 01:59:27;;;;;;;21.45;15.15;;;1.50;99.90;;;;;;5073643;28;20052;-72
2022/12/16 02:01:52;;;;;;;28.10;15.85;;;1.40;99.90;;;;;;5073955;28;20036;-72
2022/12/16 02:04:18;;;;;;;21.95;13.98;;;1.50;99.90;;;;;;5072212;28;20089;-72
2022/12/16 02:06:43;;;;;;;18.67;12.55;;;1.40;99.90;;;;;;5072495;28;20510;-72
2022/12/16 02:09:11;;;;;;;18.27;12.63;;;1.60;99.90;;;;;;5073804;28;20429;-72
2022/12/16 02:11:49;;;;;;;17.52;11.90;;;1.10;99.90;;;;;;5072358;28;20517;-73
2022/12/16 02:14:28;;;;;;;21.52;10.23;;;1.50;99.90;;;;;;5073122;28;20055;-72
2022/12/16 02:17:27;;;;;;;16.33;9.23;;;1.30;99.90;;;;;;5072354;28;20044;-72
2022/12/16 02:20:31;;;;;;;13.35;9.50;;;1.30;99.90;;;;;;5072224;28;20036;-72
2022/12/16 02:23:27;;;;;;;11.38;7.88;;;1.50;99.90;;;;;;5069993;28;20080;-72
2022/12/16 02:26:10;;;;;;;12.65;6.85;;;1.30;99.90;;;;;;5072146;28;20075;-73
2022/12/16 02:29:09;;;;;;;13.13;8.18;;;1.40;99.90;;;;;;5072020;28;20498;-72
2022/12/16 02:31:38;;;;;;;14.88;8.25;;;1.40;99.90;;;;;;5073115;28;20036;-72
2022/12/16 02:34:28;;;;;;;10.25;7.35;;;1.80;99.90;;;;;;5072837;28;20041;-72
2022/12/16 02:37:07;;;;;;;13.02;7.00;;;1.70;99.90;;;;;;5072133;28;20521;-72
2022/12/16 02:39:38;;;;;;;11.40;7.00;;;1.50;99.90;;;;;;5071560;28;20048;-72
2022/12/16 02:42:28;;;;;;;10.23;7.13;;;1.80;99.90;;;;;;5071582;28;20414;-72
2022/12/16 02:45:19;;;;;;;12.32;6.80;;;1.80;99.90;;;;;;5072863;28;20561;-72
2022/12/16 02:47:45;;;;;;;9.40;6.53;;;1.70;99.90;;;;;;5065508;28;20060;-72
2022/12/16 02:50:33;;;;;;;9.15;7.05;;;1.90;99.90;;;;;;5073220;28;20033;-72
2022/12/16 02:53:01;;;;;;;12.50;6.75;;;1.90;99.90;;;;;;5072868;28;20044;-72
2022/12/16 02:55:43;;;;;;;16.55;7.75;;;1.70;99.90;;;;;;5072749;28;20121;-72
2022/12/16 02:58:35;;;;;;;10.05;6.05;;;1.60;99.90;;;;;;5070922;28;20063;-72
2022/12/16 03:01:24;;;;;;;12.48;6.60;;;1.70;99.90;;;;;;5043491;28;20052;-72
2022/12/16 03:04:06;;;;;;;13.57;5.97;;;1.90;99.90;;;;;;5072250;28;20151;-72
2022/12/16 03:06:35;;;;;;;9.48;6.05;;;1.90;99.90;;;;;;5072877;28;20043;-72
2022/12/16 03:09:04;;;;;;;11.07;6.20;;;1.70;99.90;;;;;;5072480;28;20051;-72
2022/12/16 03:11:31;;;;;;;9.10;6.50;;;1.80;99.90;;;;;;5070982;28;20072;-72
2022/12/16 03:13:59;;;;;;;10.60;6.30;;;1.70;99.90;;;;;;5072048;28;20079;-72
2022/12/16 03:16:29;;;;;;;12.43;6.88;;;1.80;99.90;;;;;;5072272;28;20120;-72
2022/12/16 03:19:00;;;;;;;10.20;6.75;;;1.80;99.90;;;;;;5071162;28;20048;-73
2022/12/16 03:21:30;;;;;;;14.18;7.55;;;2.10;99.90;;;;;;5072303;28;20067;-73
2022/12/16 03:24:06;;;;;;;20.60;8.35;;;2.10;99.90;;;;;;5071808;28;20051;-72
2022/12/16 03:27:06;;;;;;;16.25;9.40;;;2.00;99.90;;;;;;5071384;28;20549;-72
2022/12/16 03:29:31;;;;;;;17.90;10.57;;;1.90;99.90;;;;;;5072201;28;20036;-73
2022/12/16 03:32:02;;;;;;;19.13;11.82;;;1.90;99.90;;;;;;5069861;28;20036;-72
2022/12/16 03:34:38;;;;;;;20.55;12.82;;;2.00;99.90;;;;;;5070276;28;20052;-73
2022/12/16 03:37:07;;;;;;;17.27;13.10;;;2.20;99.90;;;;;;5070218;28;20033;-73
2022/12/16 03:39:38;;;;;;;21.45;14.52;;;2.20;99.90;;;;;;5054124;28;20399;-73
2022/12/16 03:42:04;;;;;;;23.50;15.80;;;2.00;99.90;;;;;;5070450;28;20086;-72
2022/12/16 03:44:31;;;;;;;28.67;19.58;;;1.80;99.90;;;;;;5070251;28;20047;-72
2022/12/16 03:46:57;;;;;;;28.95;20.02;;;2.30;99.90;;;;;;5070990;28;20389;-72
2022/12/16 03:49:23;;;;;;;30.10;20.50;;;2.00;99.90;;;;;;5070648;28;20051;-73
2022/12/16 03:51:49;;;;;;;29.13;20.13;;;2.20;99.90;;;;;;5070158;28;20040;-72
2022/12/16 03:54:14;;;;;;;34.15;23.58;;;1.90;99.90;;;;;;5053582;28;20040;-72
2022/12/16 03:56:40;;;;;;;36.40;22.15;;;2.40;99.90;;;;;;5070337;28;20040;-72
2022/12/16 03:59:06;;;;;;;42.92;24.08;;;2.30;99.90;;;;;;5070291;28;20136;-72
2022/12/16 04:01:31;;;;;;;37.10;25.20;;;2.20;99.90;;;;;;5070100;28;20040;-72
2022/12/16 04:03:57;;;;;;;38.78;26.00;;;2.10;99.90;;;;;;5069988;28;20044;-73
2022/12/16 04:06:22;;;;;;;47.92;28.83;;;2.10;99.90;;;;;;5070174;28;20059;-72
2022/12/16 04:08:48;;;;;;;45.80;28.45;;;2.20;99.90;;;;;;5070450;28;20112;-72
2022/12/16 04:25:14;;;;;;;49.95;31.23;;;2.20;99.90;;;;;;5070012;28;20083;-73
2022/12/16 04:27:45;;;;;;;54.47;31.38;;;2.20;99.90;;;;;;5071092;28;20056;-72
2022/12/16 04:30:18;;;;;;;53.50;31.42;;;1.70;99.90;;;;;;5069719;28;20044;-72
